createdAt,value
2017-08-20T00:00:11.732Z,0
2017-08-20T00:01:13.238Z,0
2017-08-20T00:02:14.872Z,0
2017-08-20T00:03:16.352Z,0
2017-08-20T00:04:17.915Z,0
2017-08-20T00:05:19.494Z,0
2017-08-20T00:06:21.059Z,0
2017-08-20T00:07:22.571Z,0
2017-08-20T00:08:24.120Z,0
2017-08-20T00:09:25.617Z,0
2017-08-20T00:10:27.223Z,0
2017-08-20T00:11:28.791Z,0
2017-08-20T00:12:30.404Z,0
2017-08-20T00:13:31.974Z,0
2017-08-20T00:14:33.557Z,0
2017-08-20T00:15:35.131Z,0
2017-08-20T00:16:36.708Z,0
2017-08-20T00:17:38.279Z,0
2017-08-20T00:18:39.811Z,0
2017-08-20T00:19:41.417Z,0
2017-08-20T00:20:42.997Z,0
2017-08-20T00:21:44.674Z,0
2017-08-20T00:22:46.272Z,0
2017-08-20T00:23:47.840Z,0
2017-08-20T00:24:49.459Z,0
2017-08-20T00:25:50.960Z,0
2017-08-20T00:26:52.498Z,0
2017-08-20T00:27:54.127Z,0
2017-08-20T00:28:55.634Z,0
2017-08-20T00:29:57.111Z,0
2017-08-20T00:30:58.633Z,0
2017-08-20T00:32:00.128Z,0
2017-08-20T00:33:01.627Z,0
2017-08-20T00:34:03.116Z,0
2017-08-20T00:35:04.599Z,0
2017-08-20T00:36:06.132Z,0
2017-08-20T00:37:07.624Z,0
2017-08-20T00:38:09.137Z,0
2017-08-20T00:39:10.653Z,0
2017-08-20T00:40:12.177Z,0
2017-08-20T00:41:13.637Z,0
2017-08-20T00:42:15.257Z,0
2017-08-20T00:43:16.881Z,0
2017-08-20T00:44:18.655Z,0
2017-08-20T00:45:20.246Z,0
2017-08-20T00:46:21.927Z,0
2017-08-20T00:47:23.670Z,0
2017-08-20T00:48:25.337Z,0
2017-08-20T00:49:27.043Z,0
2017-08-20T00:50:28.887Z,0
2017-08-20T00:51:30.547Z,0
2017-08-20T00:52:32.154Z,0
2017-08-20T00:53:33.896Z,0
2017-08-20T00:54:35.531Z,0
2017-08-20T00:55:37.180Z,0
2017-08-20T00:56:38.839Z,0
2017-08-20T00:57:40.622Z,0
2017-08-20T00:58:42.410Z,0
2017-08-20T00:59:44.201Z,0
2017-08-20T01:00:45.817Z,0
2017-08-20T01:01:47.544Z,0
2017-08-20T01:02:49.197Z,0
2017-08-20T01:03:50.946Z,0
2017-08-20T01:04:52.627Z,0
2017-08-20T01:05:54.295Z,0
2017-08-20T01:06:55.913Z,0
2017-08-20T01:07:57.707Z,0
2017-08-20T01:08:59.464Z,0
2017-08-20T01:10:01.119Z,0
2017-08-20T01:11:02.762Z,0
2017-08-20T01:12:04.413Z,0
2017-08-20T01:13:06.199Z,0
2017-08-20T01:14:07.778Z,0
2017-08-20T01:15:09.546Z,0
2017-08-20T01:16:11.222Z,0
2017-08-20T01:17:12.890Z,0
2017-08-20T01:18:14.627Z,0
2017-08-20T01:19:16.407Z,0
2017-08-20T01:20:17.974Z,0
2017-08-20T01:21:19.497Z,0
2017-08-20T01:22:20.995Z,0
2017-08-20T01:23:22.495Z,0
2017-08-20T01:24:24.040Z,0
2017-08-20T01:25:25.584Z,0
2017-08-20T01:26:27.141Z,0
2017-08-20T01:27:28.845Z,0
2017-08-20T01:28:30.502Z,0
2017-08-20T01:29:32.101Z,0
2017-08-20T01:30:33.818Z,0
2017-08-20T01:31:35.478Z,0
2017-08-20T01:32:37.051Z,0
2017-08-20T01:33:38.709Z,0
2017-08-20T01:34:40.290Z,0
2017-08-20T01:35:41.932Z,0
2017-08-20T01:36:43.586Z,0
2017-08-20T01:37:45.153Z,0
2017-08-20T01:38:46.723Z,0
2017-08-20T01:39:48.397Z,0
2017-08-20T01:40:50.075Z,0
2017-08-20T01:41:51.711Z,0
2017-08-20T01:42:53.409Z,0
2017-08-20T01:43:55.106Z,0
2017-08-20T01:44:56.718Z,0
2017-08-20T01:45:58.395Z,0
2017-08-20T01:47:00.042Z,0
2017-08-20T01:48:01.811Z,0
2017-08-20T01:49:03.415Z,0
2017-08-20T01:50:05.112Z,0
2017-08-20T01:51:06.762Z,0
2017-08-20T01:52:08.370Z,0
2017-08-20T01:53:10.028Z,0
2017-08-20T01:54:11.645Z,0
2017-08-20T01:55:13.286Z,0
2017-08-20T01:56:14.991Z,0
2017-08-20T01:57:16.696Z,0
2017-08-20T01:58:18.336Z,0
2017-08-20T01:59:20.024Z,0
2017-08-20T02:00:21.733Z,0
2017-08-20T02:01:23.347Z,0
2017-08-20T02:02:25.044Z,0
2017-08-20T02:03:26.678Z,0
2017-08-20T02:04:28.344Z,0
2017-08-20T02:05:29.950Z,0
2017-08-20T02:06:31.628Z,0
2017-08-20T02:07:33.221Z,0
2017-08-20T02:08:34.884Z,0
2017-08-20T02:09:36.452Z,0
2017-08-20T02:10:38.097Z,0
2017-08-20T02:11:39.737Z,0
2017-08-20T02:12:41.379Z,0
2017-08-20T02:13:43.048Z,0
2017-08-20T02:14:44.803Z,0
2017-08-20T02:15:46.441Z,0
2017-08-20T02:16:48.382Z,0
2017-08-20T02:17:49.957Z,0
2017-08-20T02:18:51.663Z,0
2017-08-20T02:19:53.390Z,0
2017-08-20T02:20:54.991Z,0
2017-08-20T02:21:56.634Z,0
2017-08-20T02:22:58.200Z,0
2017-08-20T02:23:59.849Z,0
2017-08-20T02:25:01.446Z,0
2017-08-20T02:26:03.081Z,0
2017-08-20T02:27:04.660Z,0
2017-08-20T02:28:06.192Z,0
2017-08-20T02:29:07.841Z,0
2017-08-20T02:30:09.417Z,0
2017-08-20T02:31:13.793Z,0
2017-08-20T02:32:18.058Z,0
2017-08-20T02:33:22.081Z,0
2017-08-20T02:34:24.306Z,0
2017-08-20T02:35:28.726Z,0
2017-08-20T02:36:31.568Z,0
2017-08-20T02:37:35.233Z,0
2017-08-20T02:38:38.113Z,0
2017-08-20T02:39:41.041Z,0
2017-08-20T02:40:44.769Z,0
2017-08-20T02:41:47.621Z,0
2017-08-20T02:42:52.242Z,0
2017-08-20T02:43:53.868Z,0
2017-08-20T02:44:55.393Z,0
2017-08-20T02:45:57.090Z,0
2017-08-20T02:46:58.831Z,0
2017-08-20T02:48:00.443Z,0
2017-08-20T02:49:03.894Z,0
2017-08-20T02:50:05.493Z,0
2017-08-20T02:51:07.247Z,0
2017-08-20T02:52:08.890Z,0
2017-08-20T02:53:10.531Z,0
2017-08-20T02:54:12.172Z,0
2017-08-20T02:55:13.834Z,0
2017-08-20T02:56:15.501Z,0
2017-08-20T02:57:17.187Z,0
2017-08-20T02:58:18.923Z,0
2017-08-20T02:59:20.457Z,0
2017-08-20T03:00:22.278Z,0
2017-08-20T03:01:23.967Z,0
2017-08-20T03:02:25.691Z,0
2017-08-20T03:03:27.452Z,0
2017-08-20T03:04:29.107Z,0
2017-08-20T03:05:30.746Z,0
2017-08-20T03:06:32.442Z,0
2017-08-20T03:07:34.083Z,0
2017-08-20T03:08:35.798Z,0
2017-08-20T03:09:37.481Z,0
2017-08-20T03:10:39.087Z,0
2017-08-20T03:11:40.702Z,0
2017-08-20T03:12:42.289Z,0
2017-08-20T03:13:43.942Z,0
2017-08-20T03:14:45.525Z,0
2017-08-20T03:15:47.098Z,0
2017-08-20T03:16:48.768Z,0
2017-08-20T03:17:50.413Z,0
2017-08-20T03:18:52.013Z,0
2017-08-20T03:19:53.635Z,0
2017-08-20T03:20:55.197Z,0
2017-08-20T03:21:56.798Z,0
2017-08-20T03:22:58.376Z,0
2017-08-20T03:23:59.991Z,0
2017-08-20T03:25:01.690Z,0
2017-08-20T03:26:03.274Z,0
2017-08-20T03:27:04.939Z,0
2017-08-20T03:28:06.502Z,0
2017-08-20T03:29:08.039Z,0
2017-08-20T03:30:09.565Z,0
2017-08-20T03:31:11.175Z,0
2017-08-20T03:32:12.768Z,0
2017-08-20T03:33:14.409Z,0
2017-08-20T03:34:16.073Z,0
2017-08-20T03:35:17.704Z,0
2017-08-20T03:36:19.400Z,0
2017-08-20T03:37:21.055Z,0
2017-08-20T03:38:22.888Z,0
2017-08-20T03:39:24.557Z,0
2017-08-20T03:40:26.373Z,0
2017-08-20T03:41:28.072Z,4
2017-08-20T03:42:29.705Z,4
2017-08-20T03:43:31.340Z,4
2017-08-20T03:44:32.999Z,4
2017-08-20T03:45:35.061Z,4
2017-08-20T03:46:36.700Z,4
2017-08-20T03:47:38.391Z,8
2017-08-20T03:48:40.044Z,4
2017-08-20T03:49:41.743Z,8
2017-08-20T03:50:43.289Z,12
2017-08-20T03:51:44.946Z,12
2017-08-20T03:52:46.533Z,12
2017-08-20T03:53:48.132Z,16
2017-08-20T03:54:49.777Z,20
2017-08-20T03:55:51.395Z,24
2017-08-20T03:56:53.076Z,24
2017-08-20T03:57:54.695Z,32
2017-08-20T03:58:56.331Z,36
2017-08-20T03:59:57.900Z,40
2017-08-20T04:00:59.491Z,48
2017-08-20T04:02:01.116Z,56
2017-08-20T04:03:02.743Z,60
2017-08-20T04:04:04.493Z,68
2017-08-20T04:05:06.107Z,76
2017-08-20T04:06:07.707Z,84
2017-08-20T04:07:09.351Z,92
2017-08-20T04:08:11.032Z,100
2017-08-20T04:09:12.661Z,108
2017-08-20T04:10:14.301Z,120
2017-08-20T04:11:15.983Z,132
2017-08-20T04:12:17.586Z,144
2017-08-20T04:13:19.280Z,152
2017-08-20T04:14:21.053Z,168
2017-08-20T04:15:22.732Z,180
2017-08-20T04:16:24.445Z,196
2017-08-20T04:17:26.109Z,208
2017-08-20T04:18:27.751Z,224
2017-08-20T04:19:29.425Z,240
2017-08-20T04:20:31.395Z,260
2017-08-20T04:21:33.058Z,272
2017-08-20T04:22:34.699Z,292
2017-08-20T04:23:36.446Z,308
2017-08-20T04:24:38.263Z,328
2017-08-20T04:25:40.097Z,348
2017-08-20T04:26:41.816Z,372
2017-08-20T04:27:43.580Z,392
2017-08-20T04:28:45.242Z,416
2017-08-20T04:29:46.909Z,440
2017-08-20T04:30:48.606Z,464
2017-08-20T04:31:50.310Z,488
2017-08-20T04:32:52.109Z,512
2017-08-20T04:33:53.717Z,544
2017-08-20T04:34:55.376Z,572
2017-08-20T04:35:57.017Z,604
2017-08-20T04:36:58.629Z,640
2017-08-20T04:38:00.246Z,672
2017-08-20T04:39:01.949Z,708
2017-08-20T04:40:03.639Z,736
2017-08-20T04:41:05.317Z,760
2017-08-20T04:42:06.932Z,784
2017-08-20T04:43:08.566Z,804
2017-08-20T04:44:10.191Z,828
2017-08-20T04:45:11.814Z,852
2017-08-20T04:46:13.488Z,872
2017-08-20T04:47:15.159Z,892
2017-08-20T04:48:16.734Z,916
2017-08-20T04:49:18.448Z,940
2017-08-20T04:50:20.009Z,960
2017-08-20T04:51:21.695Z,984
2017-08-20T04:52:23.433Z,1004
2017-08-20T04:53:25.035Z,1024
2017-08-20T04:54:26.771Z,1040
2017-08-20T04:55:28.369Z,1060
2017-08-20T04:56:30.074Z,1080
2017-08-20T04:57:31.725Z,1096
2017-08-20T04:58:33.318Z,1112
2017-08-20T04:59:34.947Z,1128
2017-08-20T05:00:36.655Z,1144
2017-08-20T05:01:38.243Z,1164
2017-08-20T05:02:39.903Z,1180
2017-08-20T05:03:41.594Z,1196
2017-08-20T05:04:43.264Z,1220
2017-08-20T05:05:45.005Z,1236
2017-08-20T05:06:46.646Z,1252
2017-08-20T05:07:48.299Z,1272
2017-08-20T05:08:49.934Z,1288
2017-08-20T05:09:51.560Z,1304
2017-08-20T05:10:53.187Z,1328
2017-08-20T05:11:54.820Z,1344
2017-08-20T05:12:56.535Z,1352
2017-08-20T05:13:58.251Z,1368
2017-08-20T05:14:59.860Z,1384
2017-08-20T05:16:01.476Z,1404
2017-08-20T05:17:03.106Z,1416
2017-08-20T05:18:04.760Z,1436
2017-08-20T05:19:06.414Z,1452
2017-08-20T05:20:08.060Z,1472
2017-08-20T05:21:09.699Z,1488
2017-08-20T05:22:11.385Z,1512
2017-08-20T05:23:13.088Z,1532
2017-08-20T05:24:14.743Z,1548
2017-08-20T05:25:16.286Z,1568
2017-08-20T05:26:17.918Z,1584
2017-08-20T05:27:19.683Z,1604
2017-08-20T05:28:21.268Z,1624
2017-08-20T05:29:22.924Z,1640
2017-08-20T05:30:24.589Z,1652
2017-08-20T05:31:26.264Z,1672
2017-08-20T05:32:27.887Z,1692
2017-08-20T05:33:29.450Z,1708
2017-08-20T05:34:31.028Z,1728
2017-08-20T05:35:32.660Z,1744
2017-08-20T05:36:34.234Z,1764
2017-08-20T05:37:35.863Z,1780
2017-08-20T05:38:37.461Z,1796
2017-08-20T05:39:39.134Z,1816
2017-08-20T05:40:40.765Z,1840
2017-08-20T05:41:42.398Z,1856
2017-08-20T05:42:44.000Z,1880
2017-08-20T05:43:45.658Z,1892
2017-08-20T05:44:47.316Z,1916
2017-08-20T05:45:49.031Z,1940
2017-08-20T05:46:50.634Z,1960
2017-08-20T05:47:52.232Z,1980
2017-08-20T05:48:53.839Z,1996
2017-08-20T05:49:55.522Z,2020
2017-08-20T05:50:57.160Z,2048
2017-08-20T05:51:58.796Z,2068
2017-08-20T05:53:00.488Z,2088
2017-08-20T05:54:02.145Z,2104
2017-08-20T05:55:03.738Z,2132
2017-08-20T05:56:05.311Z,2160
2017-08-20T05:57:06.983Z,2184
2017-08-20T05:58:08.672Z,2212
2017-08-20T05:59:10.331Z,2228
2017-08-20T06:00:11.968Z,2264
2017-08-20T06:01:13.684Z,2300
2017-08-20T06:02:15.457Z,2332
2017-08-20T06:03:17.100Z,2368
2017-08-20T06:04:18.835Z,2404
2017-08-20T06:05:20.567Z,2468
2017-08-20T06:06:22.266Z,2580
2017-08-20T06:07:23.945Z,2756
2017-08-20T06:08:25.632Z,2972
2017-08-20T06:09:27.315Z,3216
2017-08-20T06:10:28.967Z,3364
2017-08-20T06:11:30.611Z,3492
2017-08-20T06:12:32.345Z,3612
2017-08-20T06:13:34.087Z,3704
2017-08-20T06:14:35.726Z,3776
2017-08-20T06:15:37.399Z,3864
2017-08-20T06:16:39.010Z,4184
2017-08-20T06:17:40.760Z,5276
2017-08-20T06:18:42.514Z,6516
2017-08-20T06:19:44.190Z,6800
2017-08-20T06:20:45.848Z,6576
2017-08-20T06:21:47.497Z,5920
2017-08-20T06:22:49.133Z,5244
2017-08-20T06:23:50.746Z,5080
2017-08-20T06:24:52.467Z,5156
2017-08-20T06:25:54.107Z,5072
2017-08-20T06:26:55.837Z,4992
2017-08-20T06:27:57.450Z,5020
2017-08-20T06:28:59.030Z,5040
2017-08-20T06:30:00.668Z,5064
2017-08-20T06:31:02.343Z,5084
2017-08-20T06:32:03.987Z,5164
2017-08-20T06:33:05.532Z,5372
2017-08-20T06:34:07.258Z,5968
2017-08-20T06:35:08.904Z,5872
2017-08-20T06:36:10.574Z,5284
2017-08-20T06:37:12.237Z,5124
2017-08-20T06:38:13.802Z,5160
2017-08-20T06:39:15.515Z,5360
2017-08-20T06:40:17.183Z,5540
2017-08-20T06:41:18.967Z,5408
2017-08-20T06:42:20.667Z,5096
2017-08-20T06:43:22.417Z,5096
2017-08-20T06:44:24.108Z,5212
2017-08-20T06:45:25.771Z,5496
2017-08-20T06:46:27.396Z,5300
2017-08-20T06:47:29.078Z,5116
2017-08-20T06:48:30.757Z,5184
2017-08-20T06:49:32.448Z,5288
2017-08-20T06:50:34.128Z,5328
2017-08-20T06:51:37.823Z,5132
2017-08-20T06:52:39.492Z,4780
2017-08-20T06:53:41.104Z,4520
2017-08-20T06:54:42.770Z,4408
2017-08-20T06:55:44.388Z,4364
2017-08-20T06:56:45.975Z,4388
2017-08-20T06:57:47.594Z,4404
2017-08-20T06:58:49.253Z,4420
2017-08-20T06:59:50.971Z,4452
2017-08-20T07:00:52.616Z,4484
2017-08-20T07:01:54.263Z,4540
2017-08-20T07:02:56.429Z,4620
2017-08-20T07:03:58.604Z,4628
2017-08-20T07:05:00.848Z,4680
2017-08-20T07:06:02.446Z,4772
2017-08-20T07:07:04.134Z,4812
2017-08-20T07:08:05.897Z,4840
2017-08-20T07:09:07.609Z,4896
2017-08-20T07:10:09.254Z,4928
2017-08-20T07:11:10.841Z,4964
2017-08-20T07:12:12.507Z,5028
2017-08-20T07:13:14.223Z,5024
2017-08-20T07:14:16.003Z,5124
2017-08-20T07:15:17.764Z,5136
2017-08-20T07:16:19.560Z,5272
2017-08-20T07:17:21.300Z,5332
2017-08-20T07:18:23.054Z,5312
2017-08-20T07:19:24.739Z,5432
2017-08-20T07:20:26.454Z,5484
2017-08-20T07:21:28.067Z,5532
2017-08-20T07:22:29.703Z,5604
2017-08-20T07:23:31.355Z,5648
2017-08-20T07:24:33.099Z,5696
2017-08-20T07:25:34.738Z,5688
2017-08-20T07:26:36.505Z,5860
2017-08-20T07:27:38.151Z,5856
2017-08-20T07:28:39.852Z,5988
2017-08-20T07:29:41.564Z,6068
2017-08-20T07:30:43.286Z,6068
2017-08-20T07:31:44.962Z,6120
2017-08-20T07:32:46.695Z,6116
2017-08-20T07:33:48.470Z,6348
2017-08-20T07:34:50.293Z,6384
2017-08-20T07:35:52.387Z,6376
2017-08-20T07:36:54.200Z,6368
2017-08-20T07:37:55.962Z,6248
2017-08-20T07:38:57.688Z,6428
2017-08-20T07:39:59.378Z,6592
2017-08-20T07:41:01.233Z,6584
2017-08-20T07:42:02.931Z,6664
2017-08-20T07:43:04.718Z,5028
2017-08-20T07:44:06.419Z,3240
2017-08-20T07:45:08.102Z,7068
2017-08-20T07:46:09.829Z,7388
2017-08-20T07:47:11.532Z,7548
2017-08-20T07:48:13.176Z,7716
2017-08-20T07:49:14.917Z,7920
2017-08-20T07:50:16.826Z,8116
2017-08-20T07:51:18.497Z,8148
2017-08-20T07:52:20.247Z,7912
2017-08-20T07:53:22.081Z,6724
2017-08-20T07:54:23.717Z,5676
2017-08-20T07:55:25.373Z,4536
2017-08-20T07:56:27.194Z,5296
2017-08-20T07:57:29.306Z,6568
2017-08-20T07:58:31.117Z,5876
2017-08-20T07:59:33.036Z,5208
2017-08-20T08:00:34.707Z,5180
2017-08-20T08:01:36.442Z,4612
2017-08-20T08:02:38.218Z,5380
2017-08-20T08:03:39.870Z,8860
2017-08-20T08:04:41.540Z,8732
2017-08-20T08:05:43.238Z,8600
2017-08-20T08:06:44.940Z,8484
2017-08-20T08:07:46.644Z,8324
2017-08-20T08:08:48.378Z,8212
2017-08-20T08:09:50.185Z,8232
2017-08-20T08:10:52.079Z,8316
2017-08-20T08:11:53.710Z,8224
2017-08-20T08:12:55.396Z,5356
2017-08-20T08:13:57.199Z,8516
2017-08-20T08:14:58.900Z,8480
2017-08-20T08:16:00.779Z,8848
2017-08-20T08:17:02.457Z,9208
2017-08-20T08:18:04.234Z,9408
2017-08-20T08:19:05.907Z,9476
2017-08-20T08:20:07.603Z,9540
2017-08-20T08:21:09.294Z,9232
2017-08-20T08:22:11.121Z,9512
2017-08-20T08:23:12.878Z,9444
2017-08-20T08:24:14.614Z,9408
2017-08-20T08:25:16.227Z,9412
2017-08-20T08:26:17.984Z,9492
2017-08-20T08:27:19.694Z,9660
2017-08-20T08:28:21.436Z,6996
2017-08-20T08:29:23.238Z,10284
2017-08-20T08:30:25.231Z,10324
2017-08-20T08:31:27.001Z,10772
2017-08-20T08:32:29.307Z,11332
2017-08-20T08:33:33.341Z,11892
2017-08-20T08:34:34.937Z,12736
2017-08-20T08:35:36.622Z,13632
2017-08-20T08:36:38.303Z,13692
2017-08-20T08:37:39.998Z,12660
2017-08-20T08:38:41.818Z,10084
2017-08-20T08:39:43.515Z,8072
2017-08-20T08:40:45.284Z,5080
2017-08-20T08:41:46.957Z,4656
2017-08-20T08:42:48.640Z,4448
2017-08-20T08:43:50.423Z,4548
2017-08-20T08:44:52.523Z,4732
2017-08-20T08:45:54.362Z,4924
2017-08-20T08:46:56.646Z,5044
2017-08-20T08:47:58.373Z,5396
2017-08-20T08:49:00.212Z,12936
2017-08-20T08:50:02.181Z,6992
2017-08-20T08:51:03.692Z,13784
2017-08-20T08:52:05.752Z,11584
2017-08-20T08:53:07.527Z,15616
2017-08-20T08:54:09.779Z,15744
2017-08-20T08:55:11.780Z,16096
2017-08-20T08:56:13.631Z,16416
2017-08-20T08:57:15.397Z,9400
2017-08-20T08:58:17.306Z,16000
2017-08-20T08:59:19.103Z,15104
2017-08-20T09:00:21.251Z,8676
2017-08-20T09:01:23.821Z,5804
2017-08-20T09:02:25.763Z,4592
2017-08-20T09:03:27.875Z,3540
2017-08-20T09:04:29.593Z,2952
2017-08-20T09:05:32.064Z,2928
2017-08-20T09:06:34.481Z,3156
2017-08-20T09:07:36.546Z,3556
2017-08-20T09:08:38.680Z,3992
2017-08-20T09:09:40.680Z,4348
2017-08-20T09:10:42.763Z,4644
2017-08-20T09:11:44.586Z,4880
2017-08-20T09:12:47.390Z,5136
2017-08-20T09:13:50.550Z,5656
2017-08-20T09:14:53.541Z,6192
2017-08-20T09:15:56.069Z,7016
2017-08-20T09:16:58.102Z,7348
2017-08-20T09:18:00.171Z,7432
2017-08-20T09:19:03.015Z,7500
2017-08-20T09:20:04.674Z,8672
2017-08-20T09:21:06.659Z,7424
2017-08-20T09:22:08.390Z,7388
2017-08-20T09:23:10.383Z,7508
2017-08-20T09:24:12.017Z,7248
2017-08-20T09:25:13.647Z,7280
2017-08-20T09:26:15.297Z,7648
2017-08-20T09:27:17.016Z,7924
2017-08-20T09:28:18.737Z,8112
2017-08-20T09:29:21.407Z,8060
2017-08-20T09:30:23.024Z,7976
2017-08-20T09:31:24.766Z,8164
2017-08-20T09:32:26.622Z,8108
2017-08-20T09:33:28.596Z,7848
2017-08-20T09:34:30.610Z,7784
2017-08-20T09:35:32.750Z,7652
2017-08-20T09:36:34.414Z,7476
2017-08-20T09:37:36.309Z,7160
2017-08-20T09:38:38.538Z,6872
2017-08-20T09:39:40.375Z,6732
2017-08-20T09:40:42.080Z,6680
2017-08-20T09:41:44.089Z,6764
2017-08-20T09:42:45.834Z,6916
2017-08-20T09:43:47.566Z,6848
2017-08-20T09:44:49.320Z,6696
2017-08-20T09:45:51.163Z,6504
2017-08-20T09:46:53.138Z,6772
2017-08-20T09:47:54.752Z,7144
2017-08-20T09:48:56.607Z,7424
2017-08-20T09:49:58.448Z,7952
2017-08-20T09:51:00.228Z,8700
2017-08-20T09:52:01.919Z,9184
2017-08-20T09:53:03.657Z,9496
2017-08-20T09:54:05.382Z,10076
2017-08-20T09:55:07.298Z,9968
2017-08-20T09:56:08.979Z,9820
2017-08-20T09:57:10.879Z,10104
2017-08-20T09:58:15.195Z,9988
2017-08-20T09:59:17.856Z,10160
2017-08-20T10:00:19.718Z,10696
2017-08-20T10:01:22.635Z,11580
2017-08-20T10:02:24.880Z,11760
2017-08-20T10:03:26.987Z,10800
2017-08-20T10:04:28.654Z,18336
2017-08-20T10:05:30.206Z,17888
2017-08-20T10:06:32.185Z,9164
2017-08-20T10:07:33.847Z,10456
2017-08-20T10:08:35.765Z,10108
2017-08-20T10:09:37.354Z,9924
2017-08-20T10:10:38.878Z,10956
2017-08-20T10:11:40.612Z,10836
2017-08-20T10:12:42.120Z,10260
2017-08-20T10:13:43.710Z,9900
2017-08-20T10:14:45.262Z,9712
2017-08-20T10:15:46.812Z,9628
2017-08-20T10:16:48.383Z,9860
2017-08-20T10:17:49.892Z,9688
2017-08-20T10:18:51.541Z,9836
2017-08-20T10:19:53.294Z,10256
2017-08-20T10:20:54.928Z,10468
2017-08-20T10:21:56.477Z,10792
2017-08-20T10:22:58.097Z,11164
2017-08-20T10:23:59.723Z,11232
2017-08-20T10:25:01.517Z,11468
2017-08-20T10:26:03.139Z,11604
2017-08-20T10:27:04.673Z,11792
2017-08-20T10:28:06.291Z,11700
2017-08-20T10:29:07.884Z,11860
2017-08-20T10:30:09.581Z,12356
2017-08-20T10:31:11.070Z,12968
2017-08-20T10:32:12.695Z,13312
2017-08-20T10:33:15.144Z,12996
2017-08-20T10:34:16.616Z,12788
2017-08-20T10:35:18.217Z,12444
2017-08-20T10:36:22.132Z,12188
2017-08-20T10:37:23.960Z,12244
2017-08-20T10:38:25.927Z,17664
2017-08-20T10:39:27.736Z,18688
2017-08-20T10:40:29.279Z,13532
2017-08-20T10:41:31.227Z,18784
2017-08-20T10:42:33.267Z,18560
2017-08-20T10:43:35.256Z,17984
2017-08-20T10:44:39.325Z,16512
2017-08-20T10:45:43.360Z,8884
2017-08-20T10:46:44.718Z,7952
2017-08-20T10:47:46.681Z,7292
2017-08-20T10:48:48.355Z,7156
2017-08-20T10:49:49.946Z,7336
2017-08-20T10:50:51.693Z,7556
2017-08-20T10:51:53.934Z,7872
2017-08-20T10:52:56.311Z,8408
2017-08-20T10:53:57.920Z,9020
2017-08-20T10:54:59.990Z,9604
2017-08-20T10:56:01.934Z,10236
2017-08-20T10:57:03.649Z,10892
2017-08-20T10:58:05.653Z,11160
2017-08-20T10:59:07.354Z,11708
2017-08-20T11:00:09.286Z,12256
2017-08-20T11:01:11.655Z,13424
2017-08-20T11:02:13.355Z,21984
2017-08-20T11:03:17.249Z,12164
2017-08-20T11:04:19.096Z,11984
2017-08-20T11:05:20.904Z,12112
2017-08-20T11:06:22.720Z,12072
2017-08-20T11:07:31.381Z,12176
2017-08-20T11:08:33.024Z,12964
2017-08-20T11:09:34.751Z,13348
2017-08-20T11:10:36.448Z,23584
2017-08-20T11:11:38.346Z,45600
2017-08-20T11:12:40.143Z,42976
2017-08-20T11:13:41.758Z,16992
2017-08-20T11:14:43.486Z,14952
2017-08-20T11:15:45.170Z,21472
2017-08-20T11:16:46.907Z,23136
2017-08-20T11:17:48.939Z,47008
2017-08-20T11:18:50.874Z,46336
2017-08-20T11:19:52.650Z,46880
2017-08-20T11:20:54.321Z,45984
2017-08-20T11:21:56.694Z,49952
2017-08-20T11:22:58.694Z,50496
2017-08-20T11:24:00.539Z,49792
2017-08-20T11:25:02.182Z,44384
2017-08-20T11:26:03.783Z,47648
2017-08-20T11:27:05.525Z,37856
2017-08-20T11:28:07.314Z,11916
2017-08-20T11:29:09.087Z,11568
2017-08-20T11:30:10.837Z,10664
2017-08-20T11:31:12.725Z,9360
2017-08-20T11:32:14.375Z,29728
2017-08-20T11:33:15.916Z,7620
2017-08-20T11:34:17.690Z,7088
2017-08-20T11:35:19.283Z,7220
2017-08-20T11:36:21.134Z,7516
2017-08-20T11:37:23.009Z,8128
2017-08-20T11:38:25.271Z,8928
2017-08-20T11:39:26.898Z,9668
2017-08-20T11:40:28.920Z,10640
2017-08-20T11:41:30.592Z,12224
2017-08-20T11:42:32.312Z,14344
2017-08-20T11:43:34.118Z,14704
2017-08-20T11:44:35.888Z,14320
2017-08-20T11:45:38.264Z,15664
2017-08-20T11:46:40.160Z,29952
2017-08-20T11:47:41.634Z,25504
2017-08-20T11:48:43.264Z,17376
2017-08-20T11:49:44.807Z,15084
2017-08-20T11:50:46.582Z,20384
2017-08-20T11:51:48.701Z,15080
2017-08-20T11:52:50.750Z,29056
2017-08-20T11:53:52.610Z,58976
2017-08-20T11:54:54.544Z,58144
2017-08-20T11:55:56.223Z,56288
2017-08-20T11:56:58.053Z,59072
2017-08-20T11:58:00.411Z,60576
2017-08-20T11:59:02.106Z,61280
2017-08-20T12:00:03.725Z,65408
2017-08-20T12:01:05.352Z,57664
2017-08-20T12:02:07.360Z,28576
2017-08-20T12:03:09.457Z,19616
2017-08-20T12:04:11.445Z,49632
2017-08-20T12:05:13.103Z,47552
2017-08-20T12:06:14.944Z,18208
2017-08-20T12:07:17.024Z,15540
2017-08-20T12:08:18.872Z,13968
2017-08-20T12:09:20.439Z,12888
2017-08-20T12:10:22.116Z,11828
2017-08-20T12:11:23.731Z,10852
2017-08-20T12:12:25.313Z,9848
2017-08-20T12:13:26.980Z,9124
2017-08-20T12:14:28.571Z,8640
2017-08-20T12:15:30.256Z,8132
2017-08-20T12:16:31.957Z,7728
2017-08-20T12:17:33.795Z,7480
2017-08-20T12:18:35.580Z,7556
2017-08-20T12:19:37.779Z,7968
2017-08-20T12:20:40.293Z,8564
2017-08-20T12:21:42.156Z,9520
2017-08-20T12:22:44.050Z,10868
2017-08-20T12:23:46.977Z,14956
2017-08-20T12:24:48.925Z,28544
2017-08-20T12:25:50.829Z,55136
2017-08-20T12:26:52.865Z,25952
2017-08-20T12:27:55.088Z,52640
2017-08-20T12:28:57.557Z,38304
2017-08-20T12:29:59.403Z,13960
2017-08-20T12:31:01.300Z,13756
2017-08-20T12:32:03.185Z,14348
2017-08-20T12:33:05.614Z,14552
2017-08-20T12:34:07.466Z,14672
2017-08-20T12:35:09.411Z,16176
2017-08-20T12:36:11.517Z,28032
2017-08-20T12:37:13.322Z,57824
2017-08-20T12:38:15.099Z,65504
2017-08-20T12:39:16.922Z,66624
2017-08-20T12:40:18.820Z,67488
2017-08-20T12:41:20.881Z,68800
2017-08-20T12:42:22.618Z,68192
2017-08-20T12:43:24.501Z,71008
2017-08-20T12:44:26.885Z,71680
2017-08-20T12:45:28.505Z,71616
2017-08-20T12:46:30.378Z,72512
2017-08-20T12:47:32.719Z,70304
2017-08-20T12:48:35.210Z,69280
2017-08-20T12:49:37.075Z,69664
2017-08-20T12:50:38.802Z,68800
2017-08-20T12:51:40.549Z,70048
2017-08-20T12:52:42.500Z,65344
2017-08-20T12:53:44.362Z,44000
2017-08-20T12:54:47.277Z,30080
2017-08-20T12:55:49.279Z,29120
2017-08-20T12:56:50.990Z,28896
2017-08-20T12:57:52.628Z,26080
2017-08-20T12:58:54.283Z,29280
2017-08-20T12:59:56.761Z,30912
2017-08-20T13:00:58.421Z,35552
2017-08-20T13:02:00.476Z,56800
2017-08-20T13:03:03.147Z,65088
2017-08-20T13:04:04.936Z,54976
2017-08-20T13:05:06.634Z,26720
2017-08-20T13:06:08.451Z,17664
2017-08-20T13:07:10.195Z,18720
2017-08-20T13:08:11.992Z,22464
2017-08-20T13:09:13.910Z,26144
2017-08-20T13:10:15.691Z,71296
2017-08-20T13:11:17.439Z,30432
2017-08-20T13:12:19.303Z,28032
2017-08-20T13:13:21.263Z,49344
2017-08-20T13:14:22.978Z,68288
2017-08-20T13:15:24.879Z,76544
2017-08-20T13:16:26.680Z,43360
2017-08-20T13:17:28.470Z,23968
2017-08-20T13:18:30.269Z,50368
2017-08-20T13:19:32.051Z,27840
2017-08-20T13:20:33.855Z,59232
2017-08-20T13:21:35.706Z,75840
2017-08-20T13:22:37.355Z,75296
2017-08-20T13:23:39.089Z,69088
2017-08-20T13:24:41.102Z,75936
2017-08-20T13:25:42.810Z,78112
2017-08-20T13:26:44.861Z,72992
2017-08-20T13:27:47.114Z,74240
2017-08-20T13:28:48.728Z,75104
2017-08-20T13:29:50.424Z,76544
2017-08-20T13:30:52.055Z,72608
2017-08-20T13:31:53.815Z,72416
2017-08-20T13:32:55.576Z,35200
2017-08-20T13:33:57.329Z,71072
2017-08-20T13:34:59.093Z,67072
2017-08-20T13:36:00.899Z,76448
2017-08-20T13:37:02.756Z,76832
2017-08-20T13:38:05.280Z,75680
2017-08-20T13:39:07.176Z,74848
2017-08-20T13:40:10.237Z,71296
2017-08-20T13:41:11.920Z,14080
2017-08-20T13:42:13.944Z,53920
2017-08-20T13:43:15.874Z,76000
2017-08-20T13:44:17.619Z,73376
2017-08-20T13:45:19.822Z,70080
2017-08-20T13:46:21.530Z,68192
2017-08-20T13:47:23.244Z,74528
2017-08-20T13:48:24.841Z,75648
2017-08-20T13:49:26.491Z,74112
2017-08-20T13:50:28.192Z,74048
2017-08-20T13:51:29.821Z,73216
2017-08-20T13:52:31.435Z,72192
2017-08-20T13:53:33.119Z,9972
2017-08-20T13:54:34.935Z,12040
2017-08-20T13:55:36.658Z,9268
2017-08-20T13:56:38.447Z,8216
2017-08-20T13:57:40.091Z,7020
2017-08-20T13:58:41.833Z,6480
2017-08-20T13:59:43.492Z,5692
2017-08-20T14:00:45.117Z,5204